Terminal Aerodrome Forecast
Issued by NWS Grand Forks, ND

Home | Current Version | Previous Version | Text Only | Print | Product List | Glossary Off
Versions: 1 2 3 4 5 6 7 8 9 10 11 12 13 14 15 16

000
FTUS43 KFGF 251700
TAFGFK
TAF
KGFK 251720Z 2518/2618 11009KT P6SM OVC025
      TEMPO 2518/2519 BKN035
     FM251900 12011KT P6SM BKN035
     FM260000 14010KT P6SM SCT070=

USA.gov is the U.S. government's official web portal to all federal, state and local government web resources and services.